sensor_id;sensor_type;location;lat;lon;timestamp;P1;durP1;ratioP1;P2;durP2;ratioP2
36551;SDS011;22559;54.176;12.102;2024-02-21T00:00:36;39.00;;;16.83;;
36551;SDS011;22559;54.176;12.102;2024-02-21T00:03:03;40.90;;;16.47;;
36551;SDS011;22559;54.176;12.102;2024-02-21T00:05:29;39.60;;;17.17;;
36551;SDS011;22559;54.176;12.102;2024-02-21T00:07:55;35.27;;;15.77;;
36551;SDS011;22559;54.176;12.102;2024-02-21T00:10:22;41.57;;;16.17;;
36551;SDS011;22559;54.176;12.102;2024-02-21T00:12:48;36.43;;;16.80;;
36551;SDS011;22559;54.176;12.102;2024-02-21T00:15:14;31.13;;;15.37;;
36551;SDS011;22559;54.176;12.102;2024-02-21T00:17:40;46.07;;;16.60;;
36551;SDS011;22559;54.176;12.102;2024-02-21T00:20:06;37.53;;;16.70;;
36551;SDS011;22559;54.176;12.102;2024-02-21T00:22:32;45.23;;;16.90;;
36551;SDS011;22559;54.176;12.102;2024-02-21T00:24:58;38.17;;;16.97;;
36551;SDS011;22559;54.176;12.102;2024-02-21T00:27:24;41.80;;;18.77;;
36551;SDS011;22559;54.176;12.102;2024-02-21T00:29:50;41.80;;;18.23;;
36551;SDS011;22559;54.176;12.102;2024-02-21T00:32:16;42.03;;;17.90;;
36551;SDS011;22559;54.176;12.102;2024-02-21T00:34:41;44.23;;;16.87;;
36551;SDS011;22559;54.176;12.102;2024-02-21T00:37:07;37.37;;;17.27;;
36551;SDS011;22559;54.176;12.102;2024-02-21T00:39:33;51.63;;;19.07;;
36551;SDS011;22559;54.176;12.102;2024-02-21T00:41:58;34.37;;;15.70;;
36551;SDS011;22559;54.176;12.102;2024-02-21T00:44:24;52.23;;;18.77;;
36551;SDS011;22559;54.176;12.102;2024-02-21T00:46:50;43.60;;;17.50;;
36551;SDS011;22559;54.176;12.102;2024-02-21T00:49:17;35.53;;;17.60;;
36551;SDS011;22559;54.176;12.102;2024-02-21T00:51:43;43.20;;;17.30;;
36551;SDS011;22559;54.176;12.102;2024-02-21T00:54:08;40.70;;;18.27;;
36551;SDS011;22559;54.176;12.102;2024-02-21T00:56:34;42.17;;;18.23;;
36551;SDS011;22559;54.176;12.102;2024-02-21T00:59:00;42.17;;;19.50;;
36551;SDS011;22559;54.176;12.102;2024-02-21T01:01:25;38.97;;;18.80;;
36551;SDS011;22559;54.176;12.102;2024-02-21T01:03:51;47.17;;;19.50;;
36551;SDS011;22559;54.176;12.102;2024-02-21T01:06:20;39.27;;;18.37;;
36551;SDS011;22559;54.176;12.102;2024-02-21T01:08:46;43.43;;;18.43;;
36551;SDS011;22559;54.176;12.102;2024-02-21T01:11:13;44.80;;;18.37;;
36551;SDS011;22559;54.176;12.102;2024-02-21T01:13:41;34.50;;;18.43;;
36551;SDS011;22559;54.176;12.102;2024-02-21T01:16:07;39.87;;;20.10;;
36551;SDS011;22559;54.176;12.102;2024-02-21T01:18:33;46.47;;;17.07;;
36551;SDS011;22559;54.176;12.102;2024-02-21T01:20:59;44.40;;;18.83;;
36551;SDS011;22559;54.176;12.102;2024-02-21T01:23:25;40.93;;;18.27;;
36551;SDS011;22559;54.176;12.102;2024-02-21T01:25:51;42.73;;;17.33;;
36551;SDS011;22559;54.176;12.102;2024-02-21T01:28:17;35.70;;;16.93;;
36551;SDS011;22559;54.176;12.102;2024-02-21T01:30:43;38.67;;;17.60;;
36551;SDS011;22559;54.176;12.102;2024-02-21T01:33:09;34.30;;;18.37;;
36551;SDS011;22559;54.176;12.102;2024-02-21T01:35:35;43.43;;;18.73;;
36551;SDS011;22559;54.176;12.102;2024-02-21T01:38:02;40.57;;;18.30;;
36551;SDS011;22559;54.176;12.102;2024-02-21T01:40:27;35.60;;;17.77;;
36551;SDS011;22559;54.176;12.102;2024-02-21T01:42:55;42.33;;;19.40;;
36551;SDS011;22559;54.176;12.102;2024-02-21T01:45:21;40.13;;;18.23;;
36551;SDS011;22559;54.176;12.102;2024-02-21T01:47:47;44.87;;;19.13;;
36551;SDS011;22559;54.176;12.102;2024-02-21T01:50:14;42.67;;;17.97;;
36551;SDS011;22559;54.176;12.102;2024-02-21T01:52:41;36.43;;;17.57;;
36551;SDS011;22559;54.176;12.102;2024-02-21T01:55:11;44.90;;;18.97;;
36551;SDS011;22559;54.176;12.102;2024-02-21T01:57:39;36.37;;;17.87;;
36551;SDS011;22559;54.176;12.102;2024-02-21T02:00:06;39.17;;;17.83;;
36551;SDS011;22559;54.176;12.102;2024-02-21T02:02:32;40.90;;;19.00;;
36551;SDS011;22559;54.176;12.102;2024-02-21T02:04:58;39.40;;;18.17;;
36551;SDS011;22559;54.176;12.102;2024-02-21T02:07:25;43.37;;;18.20;;
36551;SDS011;22559;54.176;12.102;2024-02-21T02:09:51;35.17;;;18.47;;
36551;SDS011;22559;54.176;12.102;2024-02-21T02:12:17;37.73;;;18.20;;
36551;SDS011;22559;54.176;12.102;2024-02-21T02:14:42;39.87;;;18.43;;
36551;SDS011;22559;54.176;12.102;2024-02-21T02:17:08;43.87;;;18.67;;
36551;SDS011;22559;54.176;12.102;2024-02-21T02:19:34;37.77;;;19.27;;
36551;SDS011;22559;54.176;12.102;2024-02-21T02:22:03;34.43;;;18.40;;
36551;SDS011;22559;54.176;12.102;2024-02-21T02:24:45;38.70;;;19.47;;
36551;SDS011;22559;54.176;12.102;2024-02-21T02:27:10;50.63;;;19.27;;
36551;SDS011;22559;54.176;12.102;2024-02-21T02:29:37;35.50;;;19.33;;
36551;SDS011;22559;54.176;12.102;2024-02-21T02:32:03;41.30;;;20.23;;
36551;SDS011;22559;54.176;12.102;2024-02-21T02:34:29;40.43;;;19.33;;
36551;SDS011;22559;54.176;12.102;2024-02-21T02:36:55;36.87;;;18.83;;
36551;SDS011;22559;54.176;12.102;2024-02-21T02:39:21;35.40;;;19.07;;
36551;SDS011;22559;54.176;12.102;2024-02-21T02:41:46;45.33;;;18.57;;
36551;SDS011;22559;54.176;12.102;2024-02-21T02:44:12;36.77;;;19.27;;
36551;SDS011;22559;54.176;12.102;2024-02-21T02:46:40;40.63;;;19.50;;
36551;SDS011;22559;54.176;12.102;2024-02-21T02:49:06;35.93;;;18.20;;
36551;SDS011;22559;54.176;12.102;2024-02-21T02:51:32;42.90;;;19.37;;
36551;SDS011;22559;54.176;12.102;2024-02-21T02:53:57;40.93;;;18.80;;
36551;SDS011;22559;54.176;12.102;2024-02-21T02:56:23;40.00;;;17.93;;
36551;SDS011;22559;54.176;12.102;2024-02-21T02:58:49;41.80;;;18.77;;
36551;SDS011;22559;54.176;12.102;2024-02-21T03:01:14;43.07;;;19.00;;
36551;SDS011;22559;54.176;12.102;2024-02-21T03:03:40;40.43;;;18.53;;
36551;SDS011;22559;54.176;12.102;2024-02-21T03:06:05;41.80;;;19.27;;
36551;SDS011;22559;54.176;12.102;2024-02-21T03:08:31;48.27;;;19.50;;
36551;SDS011;22559;54.176;12.102;2024-02-21T03:10:58;42.17;;;19.10;;
36551;SDS011;22559;54.176;12.102;2024-02-21T03:13:24;41.23;;;18.50;;
36551;SDS011;22559;54.176;12.102;2024-02-21T03:15:50;40.93;;;19.27;;
36551;SDS011;22559;54.176;12.102;2024-02-21T03:18:16;35.53;;;18.30;;
36551;SDS011;22559;54.176;12.102;2024-02-21T03:20:42;44.47;;;19.10;;
36551;SDS011;22559;54.176;12.102;2024-02-21T03:23:07;33.77;;;17.63;;
36551;SDS011;22559;54.176;12.102;2024-02-21T03:25:33;34.67;;;16.87;;
36551;SDS011;22559;54.176;12.102;2024-02-21T03:27:58;33.70;;;16.93;;
36551;SDS011;22559;54.176;12.102;2024-02-21T03:30:24;38.43;;;17.30;;
36551;SDS011;22559;54.176;12.102;2024-02-21T03:32:50;34.00;;;16.67;;
36551;SDS011;22559;54.176;12.102;2024-02-21T03:35:16;35.90;;;17.20;;
36551;SDS011;22559;54.176;12.102;2024-02-21T03:37:42;33.33;;;16.63;;
36551;SDS011;22559;54.176;12.102;2024-02-21T03:40:10;32.57;;;16.67;;
36551;SDS011;22559;54.176;12.102;2024-02-21T03:42:36;31.50;;;15.97;;
36551;SDS011;22559;54.176;12.102;2024-02-21T03:45:02;30.97;;;15.20;;
36551;SDS011;22559;54.176;12.102;2024-02-21T03:47:28;30.40;;;17.13;;
36551;SDS011;22559;54.176;12.102;2024-02-21T03:49:54;26.73;;;15.10;;
36551;SDS011;22559;54.176;12.102;2024-02-21T03:52:20;32.30;;;14.90;;
36551;SDS011;22559;54.176;12.102;2024-02-21T03:54:45;28.27;;;14.60;;
36551;SDS011;22559;54.176;12.102;2024-02-21T03:57:11;30.53;;;14.00;;
36551;SDS011;22559;54.176;12.102;2024-02-21T03:59:37;23.40;;;13.10;;
36551;SDS011;22559;54.176;12.102;2024-02-21T04:02:05;24.23;;;13.10;;
36551;SDS011;22559;54.176;12.102;2024-02-21T04:04:33;24.43;;;13.67;;
36551;SDS011;22559;54.176;12.102;2024-02-21T04:07:02;25.13;;;13.37;;
36551;SDS011;22559;54.176;12.102;2024-02-21T04:09:34;25.37;;;14.13;;
36551;SDS011;22559;54.176;12.102;2024-02-21T04:12:00;23.67;;;12.17;;
36551;SDS011;22559;54.176;12.102;2024-02-21T04:14:26;23.73;;;13.03;;
36551;SDS011;22559;54.176;12.102;2024-02-21T04:16:51;23.60;;;13.67;;
36551;SDS011;22559;54.176;12.102;2024-02-21T04:19:17;22.07;;;11.57;;
36551;SDS011;22559;54.176;12.102;2024-02-21T04:21:42;24.30;;;12.60;;
36551;SDS011;22559;54.176;12.102;2024-02-21T04:24:08;19.77;;;12.17;;
36551;SDS011;22559;54.176;12.102;2024-02-21T04:26:34;28.73;;;13.50;;
36551;SDS011;22559;54.176;12.102;2024-02-21T04:28:59;27.27;;;12.87;;
36551;SDS011;22559;54.176;12.102;2024-02-21T04:31:25;19.70;;;11.77;;
36551;SDS011;22559;54.176;12.102;2024-02-21T04:33:51;24.37;;;13.17;;
36551;SDS011;22559;54.176;12.102;2024-02-21T04:36:17;21.93;;;12.57;;
36551;SDS011;22559;54.176;12.102;2024-02-21T04:38:42;22.30;;;11.80;;
36551;SDS011;22559;54.176;12.102;2024-02-21T04:41:08;21.80;;;11.97;;
36551;SDS011;22559;54.176;12.102;2024-02-21T04:43:33;23.97;;;14.70;;
36551;SDS011;22559;54.176;12.102;2024-02-21T04:45:59;22.20;;;12.53;;
36551;SDS011;22559;54.176;12.102;2024-02-21T04:48:25;25.67;;;13.60;;
36551;SDS011;22559;54.176;12.102;2024-02-21T04:50:51;24.30;;;13.50;;
36551;SDS011;22559;54.176;12.102;2024-02-21T04:53:16;28.97;;;13.43;;
36551;SDS011;22559;54.176;12.102;2024-02-21T04:55:42;25.73;;;13.27;;
36551;SDS011;22559;54.176;12.102;2024-02-21T04:58:08;24.67;;;13.00;;
36551;SDS011;22559;54.176;12.102;2024-02-21T05:00:33;26.37;;;14.03;;
36551;SDS011;22559;54.176;12.102;2024-02-21T05:02:59;24.40;;;13.53;;
36551;SDS011;22559;54.176;12.102;2024-02-21T05:05:25;26.70;;;13.97;;
36551;SDS011;22559;54.176;12.102;2024-02-21T05:07:50;24.23;;;13.97;;
36551;SDS011;22559;54.176;12.102;2024-02-21T05:10:16;26.13;;;15.00;;
36551;SDS011;22559;54.176;12.102;2024-02-21T05:12:42;22.60;;;13.77;;
36551;SDS011;22559;54.176;12.102;2024-02-21T05:15:08;27.87;;;13.70;;
36551;SDS011;22559;54.176;12.102;2024-02-21T05:17:34;26.03;;;15.00;;
36551;SDS011;22559;54.176;12.102;2024-02-21T05:19:59;27.70;;;15.20;;
36551;SDS011;22559;54.176;12.102;2024-02-21T05:22:25;29.60;;;14.97;;
36551;SDS011;22559;54.176;12.102;2024-02-21T05:24:51;29.90;;;14.00;;
36551;SDS011;22559;54.176;12.102;2024-02-21T05:27:16;28.70;;;14.13;;
36551;SDS011;22559;54.176;12.102;2024-02-21T05:29:42;30.13;;;14.27;;
36551;SDS011;22559;54.176;12.102;2024-02-21T05:32:07;31.10;;;14.97;;
36551;SDS011;22559;54.176;12.102;2024-02-21T05:34:33;24.97;;;14.13;;
36551;SDS011;22559;54.176;12.102;2024-02-21T05:36:59;26.80;;;13.37;;
36551;SDS011;22559;54.176;12.102;2024-02-21T05:39:25;31.00;;;15.87;;
36551;SDS011;22559;54.176;12.102;2024-02-21T05:41:51;22.77;;;13.40;;
36551;SDS011;22559;54.176;12.102;2024-02-21T05:44:17;31.30;;;14.47;;
36551;SDS011;22559;54.176;12.102;2024-02-21T05:46:43;26.57;;;13.70;;
36551;SDS011;22559;54.176;12.102;2024-02-21T05:49:09;26.27;;;13.07;;
36551;SDS011;22559;54.176;12.102;2024-02-21T05:51:34;21.67;;;9.13;;
36551;SDS011;22559;54.176;12.102;2024-02-21T05:54:00;14.33;;;9.40;;
36551;SDS011;22559;54.176;12.102;2024-02-21T05:56:26;13.00;;;7.03;;
36551;SDS011;22559;54.176;12.102;2024-02-21T05:58:52;10.70;;;6.23;;
36551;SDS011;22559;54.176;12.102;2024-02-21T06:01:17;10.20;;;5.37;;
36551;SDS011;22559;54.176;12.102;2024-02-21T06:03:43;9.13;;;4.27;;
36551;SDS011;22559;54.176;12.102;2024-02-21T06:06:09;9.43;;;4.53;;
36551;SDS011;22559;54.176;12.102;2024-02-21T06:08:34;14.47;;;5.60;;
36551;SDS011;22559;54.176;12.102;2024-02-21T06:11:00;10.53;;;6.07;;
36551;SDS011;22559;54.176;12.102;2024-02-21T06:13:26;14.40;;;7.43;;
36551;SDS011;22559;54.176;12.102;2024-02-21T06:15:51;11.87;;;7.80;;
36551;SDS011;22559;54.176;12.102;2024-02-21T06:18:18;10.67;;;6.00;;
36551;SDS011;22559;54.176;12.102;2024-02-21T06:20:43;7.83;;;5.37;;
36551;SDS011;22559;54.176;12.102;2024-02-21T06:23:11;10.17;;;4.47;;
36551;SDS011;22559;54.176;12.102;2024-02-21T06:25:37;9.47;;;4.30;;
36551;SDS011;22559;54.176;12.102;2024-02-21T06:28:03;7.60;;;3.63;;
36551;SDS011;22559;54.176;12.102;2024-02-21T06:30:29;6.70;;;2.80;;
36551;SDS011;22559;54.176;12.102;2024-02-21T06:32:55;5.60;;;2.57;;
36551;SDS011;22559;54.176;12.102;2024-02-21T06:35:24;4.80;;;1.97;;
36551;SDS011;22559;54.176;12.102;2024-02-21T06:37:50;4.77;;;2.27;;
36551;SDS011;22559;54.176;12.102;2024-02-21T06:40:21;3.93;;;2.10;;
36551;SDS011;22559;54.176;12.102;2024-02-21T06:42:47;8.83;;;2.33;;
36551;SDS011;22559;54.176;12.102;2024-02-21T06:45:13;2.57;;;1.83;;
36551;SDS011;22559;54.176;12.102;2024-02-21T06:47:39;5.83;;;2.10;;
36551;SDS011;22559;54.176;12.102;2024-02-21T06:50:04;2.37;;;1.90;;
36551;SDS011;22559;54.176;12.102;2024-02-21T06:52:30;8.57;;;2.13;;
36551;SDS011;22559;54.176;12.102;2024-02-21T06:54:56;1.77;;;1.67;;
36551;SDS011;22559;54.176;12.102;2024-02-21T06:57:22;3.07;;;1.97;;
36551;SDS011;22559;54.176;12.102;2024-02-21T06:59:47;5.67;;;2.50;;
36551;SDS011;22559;54.176;12.102;2024-02-21T07:02:13;4.10;;;2.30;;
36551;SDS011;22559;54.176;12.102;2024-02-21T07:04:39;3.93;;;2.10;;
36551;SDS011;22559;54.176;12.102;2024-02-21T07:07:04;5.20;;;2.00;;
36551;SDS011;22559;54.176;12.102;2024-02-21T07:09:30;2.73;;;1.70;;
36551;SDS011;22559;54.176;12.102;2024-02-21T07:11:57;8.90;;;1.80;;
36551;SDS011;22559;54.176;12.102;2024-02-21T07:14:23;5.43;;;2.23;;
36551;SDS011;22559;54.176;12.102;2024-02-21T07:16:50;6.27;;;2.10;;
36551;SDS011;22559;54.176;12.102;2024-02-21T07:19:15;4.10;;;1.73;;
36551;SDS011;22559;54.176;12.102;2024-02-21T07:21:41;2.00;;;1.53;;
36551;SDS011;22559;54.176;12.102;2024-02-21T07:24:07;1.80;;;1.60;;
36551;SDS011;22559;54.176;12.102;2024-02-21T07:26:33;2.97;;;2.67;;
36551;SDS011;22559;54.176;12.102;2024-02-21T07:28:59;3.83;;;1.70;;
36551;SDS011;22559;54.176;12.102;2024-02-21T07:31:24;5.00;;;2.20;;
36551;SDS011;22559;54.176;12.102;2024-02-21T07:33:50;3.30;;;1.40;;
36551;SDS011;22559;54.176;12.102;2024-02-21T07:36:16;7.00;;;1.97;;
36551;SDS011;22559;54.176;12.102;2024-02-21T07:38:57;3.07;;;1.50;;
36551;SDS011;22559;54.176;12.102;2024-02-21T07:41:24;4.77;;;1.97;;
36551;SDS011;22559;54.176;12.102;2024-02-21T07:43:50;3.13;;;1.70;;
36551;SDS011;22559;54.176;12.102;2024-02-21T07:46:17;4.10;;;1.80;;
36551;SDS011;22559;54.176;12.102;2024-02-21T07:48:43;4.70;;;1.67;;
36551;SDS011;22559;54.176;12.102;2024-02-21T07:51:10;4.83;;;1.83;;
36551;SDS011;22559;54.176;12.102;2024-02-21T07:53:35;4.80;;;1.93;;
36551;SDS011;22559;54.176;12.102;2024-02-21T07:56:01;2.53;;;1.80;;
36551;SDS011;22559;54.176;12.102;2024-02-21T07:58:27;2.73;;;2.00;;
36551;SDS011;22559;54.176;12.102;2024-02-21T08:00:52;3.90;;;1.63;;
36551;SDS011;22559;54.176;12.102;2024-02-21T08:03:18;3.63;;;2.00;;
36551;SDS011;22559;54.176;12.102;2024-02-21T08:05:43;6.27;;;1.63;;
36551;SDS011;22559;54.176;12.102;2024-02-21T08:08:09;7.10;;;1.73;;
36551;SDS011;22559;54.176;12.102;2024-02-21T08:10:35;3.60;;;1.97;;
36551;SDS011;22559;54.176;12.102;2024-02-21T08:13:00;3.90;;;1.97;;
36551;SDS011;22559;54.176;12.102;2024-02-21T08:15:26;2.13;;;1.87;;
36551;SDS011;22559;54.176;12.102;2024-02-21T08:17:54;5.33;;;2.10;;
36551;SDS011;22559;54.176;12.102;2024-02-21T08:20:24;7.40;;;2.40;;
36551;SDS011;22559;54.176;12.102;2024-02-21T08:22:50;7.17;;;2.00;;
36551;SDS011;22559;54.176;12.102;2024-02-21T08:25:16;5.23;;;1.90;;
36551;SDS011;22559;54.176;12.102;2024-02-21T08:27:41;3.87;;;1.80;;
36551;SDS011;22559;54.176;12.102;2024-02-21T08:30:07;3.40;;;1.50;;
36551;SDS011;22559;54.176;12.102;2024-02-21T08:32:33;3.77;;;2.07;;
36551;SDS011;22559;54.176;12.102;2024-02-21T08:35:00;2.63;;;1.60;;
36551;SDS011;22559;54.176;12.102;2024-02-21T08:37:29;6.27;;;1.90;;
36551;SDS011;22559;54.176;12.102;2024-02-21T08:39:54;8.43;;;4.23;;
36551;SDS011;22559;54.176;12.102;2024-02-21T08:42:20;19.57;;;9.83;;
36551;SDS011;22559;54.176;12.102;2024-02-21T08:44:46;12.43;;;8.30;;
36551;SDS011;22559;54.176;12.102;2024-02-21T08:47:11;12.67;;;5.17;;
36551;SDS011;22559;54.176;12.102;2024-02-21T08:49:37;4.47;;;2.40;;
36551;SDS011;22559;54.176;12.102;2024-02-21T08:52:03;21.33;;;12.20;;
36551;SDS011;22559;54.176;12.102;2024-02-21T08:54:29;12.73;;;7.93;;
36551;SDS011;22559;54.176;12.102;2024-02-21T08:56:54;6.40;;;5.07;;
36551;SDS011;22559;54.176;12.102;2024-02-21T08:59:21;4.83;;;2.90;;
36551;SDS011;22559;54.176;12.102;2024-02-21T09:01:51;6.00;;;1.90;;
36551;SDS011;22559;54.176;12.102;2024-02-21T09:04:20;5.97;;;2.90;;
36551;SDS011;22559;54.176;12.102;2024-02-21T09:06:45;8.73;;;4.13;;
36551;SDS011;22559;54.176;12.102;2024-02-21T09:09:11;4.77;;;2.60;;
36551;SDS011;22559;54.176;12.102;2024-02-21T09:11:37;6.20;;;2.70;;
36551;SDS011;22559;54.176;12.102;2024-02-21T09:14:04;5.90;;;2.53;;
36551;SDS011;22559;54.176;12.102;2024-02-21T09:16:32;6.63;;;3.07;;
36551;SDS011;22559;54.176;12.102;2024-02-21T09:18:58;5.83;;;2.70;;
36551;SDS011;22559;54.176;12.102;2024-02-21T09:21:24;7.53;;;3.20;;
36551;SDS011;22559;54.176;12.102;2024-02-21T09:23:50;7.50;;;2.83;;
36551;SDS011;22559;54.176;12.102;2024-02-21T09:26:15;5.70;;;2.70;;
36551;SDS011;22559;54.176;12.102;2024-02-21T09:28:42;3.33;;;2.30;;
36551;SDS011;22559;54.176;12.102;2024-02-21T09:31:11;6.67;;;2.57;;
36551;SDS011;22559;54.176;12.102;2024-02-21T09:33:36;7.30;;;3.03;;
36551;SDS011;22559;54.176;12.102;2024-02-21T09:36:02;5.93;;;2.07;;
36551;SDS011;22559;54.176;12.102;2024-02-21T09:38:30;8.47;;;3.53;;
36551;SDS011;22559;54.176;12.102;2024-02-21T09:41:00;7.17;;;2.53;;
36551;SDS011;22559;54.176;12.102;2024-02-21T09:43:29;8.07;;;2.57;;
36551;SDS011;22559;54.176;12.102;2024-02-21T09:45:56;6.33;;;2.40;;
36551;SDS011;22559;54.176;12.102;2024-02-21T09:51:19;3.90;;;2.03;;
36551;SDS011;22559;54.176;12.102;2024-02-21T09:53:46;6.80;;;2.00;;
36551;SDS011;22559;54.176;12.102;2024-02-21T09:56:13;6.23;;;2.17;;
36551;SDS011;22559;54.176;12.102;2024-02-21T09:58:39;10.20;;;2.40;;
36551;SDS011;22559;54.176;12.102;2024-02-21T10:01:06;9.63;;;2.63;;
36551;SDS011;22559;54.176;12.102;2024-02-21T10:03:32;10.33;;;2.30;;
36551;SDS011;22559;54.176;12.102;2024-02-21T10:05:58;12.23;;;2.47;;
36551;SDS011;22559;54.176;12.102;2024-02-21T10:08:26;7.27;;;2.87;;
36551;SDS011;22559;54.176;12.102;2024-02-21T10:10:52;6.70;;;2.43;;
36551;SDS011;22559;54.176;12.102;2024-02-21T10:13:27;5.93;;;2.27;;
36551;SDS011;22559;54.176;12.102;2024-02-21T10:16:01;4.07;;;2.20;;
36551;SDS011;22559;54.176;12.102;2024-02-21T10:18:27;9.10;;;2.90;;
36551;SDS011;22559;54.176;12.102;2024-02-21T10:21:02;8.43;;;2.20;;
36551;SDS011;22559;54.176;12.102;2024-02-21T10:23:29;4.40;;;2.17;;
36551;SDS011;22559;54.176;12.102;2024-02-21T10:26:05;6.90;;;1.97;;
36551;SDS011;22559;54.176;12.102;2024-02-21T10:28:32;10.47;;;2.07;;
36551;SDS011;22559;54.176;12.102;2024-02-21T10:30:57;6.50;;;1.77;;
36551;SDS011;22559;54.176;12.102;2024-02-21T10:33:23;7.77;;;2.13;;
36551;SDS011;22559;54.176;12.102;2024-02-21T10:35:50;5.53;;;2.20;;
36551;SDS011;22559;54.176;12.102;2024-02-21T10:38:16;7.73;;;2.23;;
36551;SDS011;22559;54.176;12.102;2024-02-21T10:40:42;3.73;;;2.20;;
36551;SDS011;22559;54.176;12.102;2024-02-21T10:43:10;7.63;;;2.00;;
36551;SDS011;22559;54.176;12.102;2024-02-21T10:45:39;2.37;;;1.93;;
36551;SDS011;22559;54.176;12.102;2024-02-21T10:48:13;6.57;;;2.03;;
36551;SDS011;22559;54.176;12.102;2024-02-21T10:50:45;3.37;;;2.00;;
36551;SDS011;22559;54.176;12.102;2024-02-21T10:53:24;10.80;;;3.03;;
36551;SDS011;22559;54.176;12.102;2024-02-21T10:56:30;7.23;;;2.40;;
36551;SDS011;22559;54.176;12.102;2024-02-21T10:59:00;12.57;;;2.83;;
36551;SDS011;22559;54.176;12.102;2024-02-21T11:01:28;7.10;;;1.87;;
36551;SDS011;22559;54.176;12.102;2024-02-21T11:03:56;9.57;;;2.43;;
36551;SDS011;22559;54.176;12.102;2024-02-21T11:06:24;9.20;;;2.60;;
36551;SDS011;22559;54.176;12.102;2024-02-21T11:09:05;4.93;;;2.33;;
36551;SDS011;22559;54.176;12.102;2024-02-21T11:11:35;8.87;;;2.73;;
36551;SDS011;22559;54.176;12.102;2024-02-21T11:14:04;5.33;;;2.30;;
36551;SDS011;22559;54.176;12.102;2024-02-21T11:16:37;8.00;;;3.07;;
36551;SDS011;22559;54.176;12.102;2024-02-21T11:19:05;10.70;;;2.80;;
36551;SDS011;22559;54.176;12.102;2024-02-21T11:21:57;8.93;;;2.50;;
36551;SDS011;22559;54.176;12.102;2024-02-21T11:24:27;6.23;;;2.20;;
36551;SDS011;22559;54.176;12.102;2024-02-21T11:27:12;5.60;;;2.37;;
36551;SDS011;22559;54.176;12.102;2024-02-21T11:29:48;7.37;;;2.40;;
36551;SDS011;22559;54.176;12.102;2024-02-21T11:32:19;12.13;;;2.53;;
36551;SDS011;22559;54.176;12.102;2024-02-21T11:35:06;7.13;;;2.13;;
36551;SDS011;22559;54.176;12.102;2024-02-21T11:37:32;11.40;;;2.60;;
36551;SDS011;22559;54.176;12.102;2024-02-21T11:39:59;4.77;;;2.17;;
36551;SDS011;22559;54.176;12.102;2024-02-21T11:42:26;7.30;;;2.10;;
36551;SDS011;22559;54.176;12.102;2024-02-21T11:44:53;7.97;;;2.63;;
36551;SDS011;22559;54.176;12.102;2024-02-21T11:47:21;9.73;;;3.00;;
36551;SDS011;22559;54.176;12.102;2024-02-21T11:49:48;7.17;;;2.80;;
36551;SDS011;22559;54.176;12.102;2024-02-21T11:52:23;4.80;;;2.10;;
36551;SDS011;22559;54.176;12.102;2024-02-21T11:54:50;6.83;;;2.17;;
36551;SDS011;22559;54.176;12.102;2024-02-21T11:57:17;10.67;;;2.20;;
36551;SDS011;22559;54.176;12.102;2024-02-21T11:59:44;3.97;;;2.63;;
36551;SDS011;22559;54.176;12.102;2024-02-21T12:02:11;5.23;;;1.80;;
36551;SDS011;22559;54.176;12.102;2024-02-21T12:04:37;4.87;;;1.63;;
36551;SDS011;22559;54.176;12.102;2024-02-21T12:07:03;4.60;;;1.40;;
36551;SDS011;22559;54.176;12.102;2024-02-21T12:09:29;4.70;;;1.57;;
36551;SDS011;22559;54.176;12.102;2024-02-21T12:12:05;5.70;;;1.60;;
36551;SDS011;22559;54.176;12.102;2024-02-21T12:14:32;2.73;;;1.40;;
36551;SDS011;22559;54.176;12.102;2024-02-21T12:16:59;4.77;;;1.90;;
36551;SDS011;22559;54.176;12.102;2024-02-21T12:19:26;4.30;;;1.83;;
36551;SDS011;22559;54.176;12.102;2024-02-21T12:21:54;5.27;;;1.80;;
36551;SDS011;22559;54.176;12.102;2024-02-21T12:24:23;6.47;;;1.37;;
36551;SDS011;22559;54.176;12.102;2024-02-21T12:26:50;3.53;;;1.77;;
36551;SDS011;22559;54.176;12.102;2024-02-21T12:29:17;4.47;;;1.67;;
36551;SDS011;22559;54.176;12.102;2024-02-21T12:31:43;6.33;;;1.50;;
36551;SDS011;22559;54.176;12.102;2024-02-21T12:34:10;3.97;;;1.63;;
36551;SDS011;22559;54.176;12.102;2024-02-21T12:36:36;3.17;;;1.70;;
36551;SDS011;22559;54.176;12.102;2024-02-21T12:39:08;4.57;;;2.10;;
36551;SDS011;22559;54.176;12.102;2024-02-21T12:41:37;5.00;;;1.50;;
36551;SDS011;22559;54.176;12.102;2024-02-21T12:44:04;5.37;;;1.30;;
36551;SDS011;22559;54.176;12.102;2024-02-21T12:46:33;1.97;;;1.43;;
36551;SDS011;22559;54.176;12.102;2024-02-21T12:49:00;3.80;;;1.30;;
36551;SDS011;22559;54.176;12.102;2024-02-21T12:51:26;4.10;;;1.83;;
36551;SDS011;22559;54.176;12.102;2024-02-21T12:53:52;2.67;;;1.70;;
36551;SDS011;22559;54.176;12.102;2024-02-21T12:56:17;5.53;;;1.83;;
36551;SDS011;22559;54.176;12.102;2024-02-21T12:58:43;3.40;;;1.80;;
36551;SDS011;22559;54.176;12.102;2024-02-21T13:01:09;4.50;;;1.60;;
36551;SDS011;22559;54.176;12.102;2024-02-21T13:03:35;5.43;;;1.70;;
36551;SDS011;22559;54.176;12.102;2024-02-21T13:06:01;2.83;;;1.50;;
36551;SDS011;22559;54.176;12.102;2024-02-21T13:08:26;4.77;;;1.77;;
36551;SDS011;22559;54.176;12.102;2024-02-21T13:10:52;4.93;;;1.80;;
36551;SDS011;22559;54.176;12.102;2024-02-21T13:13:18;4.80;;;1.60;;
36551;SDS011;22559;54.176;12.102;2024-02-21T13:15:44;4.17;;;1.47;;
36551;SDS011;22559;54.176;12.102;2024-02-21T13:18:09;3.57;;;1.70;;
36551;SDS011;22559;54.176;12.102;2024-02-21T13:20:35;3.13;;;1.53;;
36551;SDS011;22559;54.176;12.102;2024-02-21T13:23:02;7.60;;;2.03;;
36551;SDS011;22559;54.176;12.102;2024-02-21T13:25:28;6.93;;;1.80;;
36551;SDS011;22559;54.176;12.102;2024-02-21T13:27:54;6.93;;;1.70;;
36551;SDS011;22559;54.176;12.102;2024-02-21T13:30:20;2.93;;;1.63;;
36551;SDS011;22559;54.176;12.102;2024-02-21T13:32:46;5.10;;;2.07;;
36551;SDS011;22559;54.176;12.102;2024-02-21T13:35:11;4.93;;;2.00;;
36551;SDS011;22559;54.176;12.102;2024-02-21T13:37:40;4.27;;;1.77;;
36551;SDS011;22559;54.176;12.102;2024-02-21T13:40:06;7.00;;;1.80;;
36551;SDS011;22559;54.176;12.102;2024-02-21T13:42:36;6.43;;;1.70;;
36551;SDS011;22559;54.176;12.102;2024-02-21T13:45:02;2.90;;;1.57;;
36551;SDS011;22559;54.176;12.102;2024-02-21T13:47:30;2.07;;;1.30;;
36551;SDS011;22559;54.176;12.102;2024-02-21T13:49:56;2.17;;;1.50;;
36551;SDS011;22559;54.176;12.102;2024-02-21T13:52:21;2.30;;;1.77;;
36551;SDS011;22559;54.176;12.102;2024-02-21T13:54:47;2.17;;;1.80;;
36551;SDS011;22559;54.176;12.102;2024-02-21T13:57:13;2.53;;;1.70;;
36551;SDS011;22559;54.176;12.102;2024-02-21T13:59:39;3.97;;;3.07;;
36551;SDS011;22559;54.176;12.102;2024-02-21T14:02:05;5.77;;;1.60;;
36551;SDS011;22559;54.176;12.102;2024-02-21T14:04:34;3.60;;;1.53;;
36551;SDS011;22559;54.176;12.102;2024-02-21T14:07:00;2.50;;;1.90;;
36551;SDS011;22559;54.176;12.102;2024-02-21T14:09:26;6.73;;;5.67;;
36551;SDS011;22559;54.176;12.102;2024-02-21T14:11:52;2.33;;;2.13;;
36551;SDS011;22559;54.176;12.102;2024-02-21T14:14:18;2.40;;;2.20;;
36551;SDS011;22559;54.176;12.102;2024-02-21T14:16:44;3.40;;;3.10;;
36551;SDS011;22559;54.176;12.102;2024-02-21T14:19:10;2.93;;;2.53;;
36551;SDS011;22559;54.176;12.102;2024-02-21T14:21:36;3.27;;;2.90;;
36551;SDS011;22559;54.176;12.102;2024-02-21T14:24:05;4.57;;;3.27;;